Time;durP1;ratioP1;P1;durP2;ratioP2;P2;SDS_P1;SDS_P2;PMS_P1;PMS_P2;Temp;Humidity;BMP_temperature;BMP_pressure;BME280_temperature;BME280_humidity;BME280_pressure;Samples;Min_cycle;Max_cycle;Signal;HPM_P1;HPM_P2
2022/02/01 00:01:25;;;;;;;63.63;28.02;;;;;;;0.36;58.09;99153.16;5087164;28;20504;-21
2022/02/01 00:03:16;;;;;;;60.28;28.35;;;;;;;0.27;58.73;99145.56;5072293;28;20044;-21
2022/02/01 00:06:10;;;;;;;114.88;47.70;;;;;;;0.49;63.55;99141.28;5088074;28;20020;-22
2022/02/01 00:11:41;;;;;;;61.85;29.67;;;;;;;9.66;44.05;99159.88;5041636;28;20090;-21
2022/02/01 00:20:09;;;;;;;132.82;57.90;;;;;;;3.06;49.18;99148.13;5070111;28;19973;-21
2022/02/01 00:33:21;;;;;;;40.83;19.88;;;;;;;0.49;58.37;99107.16;5069217;28;20039;-21
2022/02/01 00:35:57;;;;;;;33.50;17.90;;;;;;;-0.04;59.34;99107.91;5069536;28;20115;-21
2022/02/01 00:41:03;;;;;;;40.53;20.90;;;;;;;-0.42;61.50;99110.41;5069717;28;20397;-21
2022/02/01 00:43:29;;;;;;;42.95;20.48;;;;;;;0.16;59.42;99113.50;5069459;28;20040;-21
2022/02/01 00:45:54;;;;;;;42.45;20.83;;;;;;;0.12;59.56;99100.91;5051322;28;20411;-22
2022/02/01 00:48:20;;;;;;;210.48;71.82;;;;;;;0.24;61.12;99103.94;5069610;28;20029;-21
2022/02/01 00:50:45;;;;;;;50.00;24.95;;;;;;;0.09;60.40;99109.13;5069420;28;20415;-22
2022/02/01 00:53:11;;;;;;;40.20;19.58;;;;;;;0.25;60.11;99105.59;5072196;28;20040;-21
2022/02/01 00:55:36;;;;;;;42.28;19.42;;;;;;;0.19;59.45;99096.59;5078439;28;20028;-22
2022/02/01 00:58:02;;;;;;;39.92;19.88;;;;;;;-0.18;60.94;99116.50;5057663;28;20055;-22
2022/02/01 01:00:27;;;;;;;42.35;19.52;;;;;;;0.12;59.61;99091.25;5075982;28;20037;-22
2022/02/01 01:02:53;;;;;;;39.80;18.88;;;;;;;0.24;59.34;99104.75;5080594;28;20027;-21
2022/02/01 01:05:18;;;;;;;42.08;21.15;;;;;;;9.85;59.87;99120.59;5058862;28;20025;-21
2022/02/01 01:07:44;;;;;;;37.38;18.23;;;;;;;10.03;36.24;99124.91;5078672;28;20445;-21
2022/02/01 01:10:11;;;;;;;37.75;18.45;;;;;;;6.99;41.11;99117.75;5073255;28;20065;-21
2022/02/01 01:12:45;;;;;;;34.67;17.85;;;;;;;5.08;44.79;99112.25;5076198;28;20045;-22
2022/02/01 01:15:22;;;;;;;34.10;18.48;;;;;;;4.06;48.34;99118.75;5061178;28;20063;-21
2022/02/01 01:45:10;;;;;;;31.40;14.57;;;;;;;0.83;58.28;99067.31;5067923;28;20545;-21
2022/02/01 01:55:34;;;;;;;27.65;14.10;;;;;;;1.11;56.96;99070.13;5055677;28;20154;-22
2022/02/01 01:57:59;;;;;;;25.67;12.68;;;;;;;1.02;57.67;99058.09;5059735;28;20434;-21
2022/02/01 02:02:56;;;;;;;26.20;13.32;;;;;;;0.92;57.47;99062.78;5075522;28;20036;-22
2022/02/01 02:05:21;;;;;;;26.38;13.77;;;;;;;1.18;56.62;99080.72;5079343;28;20062;-23
2022/02/01 02:07:49;;;;;;;27.40;12.90;;;;;;;0.76;58.20;99088.22;5087538;28;20083;-21
2022/02/01 02:10:15;;;;;;;34.08;14.48;;;;;;;0.53;59.84;99092.72;5069811;28;20690;-21
2022/02/01 02:14:15;;;;;;;30.20;15.40;;;;;;;0.87;57.74;99083.53;5069721;28;20028;-22
2022/02/01 02:15:49;;;;;;;30.52;15.50;;;;;;;0.29;59.94;99101.63;5087294;28;20043;-21
2022/02/01 02:18:18;;;;;;;26.30;14.48;;;;;;;-0.27;62.18;99101.81;5061959;28;20060;-21
2022/02/01 02:20:50;;;;;;;28.50;14.48;;;;;;;-0.45;63.68;99094.19;5077582;28;20032;-22
2022/02/01 02:23:16;;;;;;;27.52;15.65;;;;;;;-0.13;63.01;99087.97;5057197;28;20044;-21
2022/02/01 02:25:41;;;;;;;32.28;16.20;;;;;;;0.66;61.21;99087.69;5077469;28;20030;-21
2022/02/01 02:28:09;;;;;;;26.05;13.60;;;;;;;0.81;60.33;99090.31;5076008;28;20036;-21
2022/02/01 02:30:34;;;;;;;27.77;14.57;;;;;;;0.76;59.54;99061.19;5077807;28;20023;-22
2022/02/01 02:33:05;;;;;;;28.77;14.05;;;;;;;1.02;59.11;99096.66;5075816;28;20033;-21
2022/02/01 02:35:34;;;;;;;26.42;12.80;;;;;;;0.50;60.13;99072.91;5075890;28;20024;-23
2022/02/01 02:38:05;;;;;;;26.75;12.52;;;;;;;0.60;60.23;99096.25;5076597;28;20127;-21
2022/02/01 02:40:54;;;;;;;25.23;12.43;;;;;;;0.62;60.50;99091.66;5057881;28;20113;-23
2022/02/01 02:46:00;;;;;;;25.00;12.77;;;;;;;0.77;60.78;99089.03;5055294;28;20513;-21
2022/02/01 02:48:26;;;;;;;29.98;13.32;;;;;;;0.57;60.45;99055.47;5069042;28;20249;-21
2022/02/01 02:50:51;;;;;;;27.02;13.63;;;;;;;0.91;59.74;99079.56;5087780;28;20054;-21
2022/02/01 02:53:17;;;;;;;24.85;12.35;;;;;;;1.03;58.44;99082.56;5069544;28;20503;-21
2022/02/01 02:55:42;;;;;;;29.52;13.93;;;;;;;0.70;59.99;99091.56;5069380;28;20039;-21
2022/02/01 02:58:08;;;;;;;28.17;13.63;;;;;;;0.60;59.76;99070.03;5065591;28;20099;-22
2022/02/01 03:00:33;;;;;;;24.98;12.82;;;;;;;0.73;59.75;99083.31;5067044;28;20776;-21
2022/02/01 03:03:00;;;;;;;23.05;11.90;;;;;;;0.67;59.65;99084.03;5066900;28;20063;-21
2022/02/01 03:05:25;;;;;;;28.88;13.60;;;;;;;0.58;60.31;99091.19;5066977;28;20043;-22
2022/02/01 03:07:51;;;;;;;30.60;12.63;;;;;;;0.83;58.65;99087.50;5065338;28;20036;-21
2022/02/01 03:10:16;;;;;;;30.33;16.27;;;;;;;0.46;60.56;99089.97;5066881;28;20031;-21
2022/02/01 03:13:28;;;;;;;30.35;14.90;;;;;;;0.14;61.24;99083.19;5066988;28;20448;-21
2022/02/01 03:20:39;;;;;;;27.08;12.95;;;;;;;0.50;59.58;99085.22;5066890;28;20111;-21
2022/02/01 03:23:05;;;;;;;25.35;12.85;;;;;;;0.20;59.99;99056.28;5066750;28;20044;-21
2022/02/01 03:25:30;;;;;;;28.67;13.02;;;;;;;0.38;59.78;99072.50;5065222;28;20029;-22
2022/02/01 03:27:56;;;;;;;29.77;13.48;;;;;;;0.51;60.41;99081.56;5065204;28;20029;-21
2022/02/01 03:30:22;;;;;;;21.67;12.65;;;;;;;0.46;59.55;99082.13;5065486;28;20086;-21
2022/02/01 03:32:48;;;;;;;26.45;13.50;;;;;;;0.33;60.99;99074.84;5065421;28;20886;-21
2022/02/01 03:35:13;;;;;;;23.65;12.65;;;;;;;0.56;60.86;99080.06;5065825;28;20153;-21
2022/02/01 03:37:39;;;;;;;27.17;12.77;;;;;;;0.82;59.36;99094.59;5067086;28;20393;-21
2022/02/01 03:40:05;;;;;;;24.73;13.85;;;;;;;0.85;59.33;99064.53;5067064;28;20029;-21
2022/02/01 03:42:31;;;;;;;22.25;12.18;;;;;;;0.68;59.69;99090.94;5068721;28;20037;-22
2022/02/01 03:44:56;;;;;;;22.85;12.05;;;;;;;0.71;59.55;99079.25;5070685;28;20036;-21
2022/02/01 03:47:22;;;;;;;26.95;13.15;;;;;;;1.00;58.70;99067.94;5070259;28;20465;-21
2022/02/01 03:49:47;;;;;;;30.75;15.18;;;;;;;0.98;58.38;99072.56;5070472;28;20037;-21
2022/02/01 03:52:12;;;;;;;30.98;14.63;;;;;;;0.21;60.20;99057.09;5070180;28;20051;-21
2022/02/01 03:54:38;;;;;;;31.02;16.10;;;;;;;-0.18;61.91;99056.25;5070123;28;20055;-21
2022/02/01 03:57:05;;;;;;;29.63;14.85;;;;;;;-0.07;62.04;99055.81;5068533;28;20041;-21
2022/02/01 03:59:31;;;;;;;29.90;13.98;;;;;;;0.09;62.59;99047.03;5088700;28;20135;-21
2022/02/01 04:01:57;;;;;;;30.05;14.93;;;;;;;-0.16;62.46;99046.41;5090608;28;20044;-21
2022/02/01 04:04:27;;;;;;;27.50;14.15;;;;;;;0.43;61.17;99063.28;5055489;28;20039;-21
2022/02/01 04:06:53;;;;;;;24.70;12.65;;;;;;;0.92;60.15;99081.16;5088905;28;20028;-21
2022/02/01 04:09:19;;;;;;;27.13;14.25;;;;;;;0.70;60.31;99078.47;5071795;28;20035;-22
2022/02/01 04:11:44;;;;;;;28.70;13.85;;;;;;;0.93;59.63;99069.69;5071734;28;20145;-23
2022/02/01 04:14:14;;;;;;;24.33;13.45;;;;;;;1.01;59.48;99069.59;5090071;28;20085;-21
2022/02/01 04:16:40;;;;;;;25.70;13.88;;;;;;;0.56;60.67;99039.91;5090510;28;20032;-21
2022/02/01 04:19:05;;;;;;;24.52;12.43;;;;;;;0.62;61.21;99078.53;5089894;28;20431;-21
2022/02/01 04:21:31;;;;;;;22.38;11.95;;;;;;;0.11;62.97;99068.63;5089902;28;20028;-21
2022/02/01 04:23:56;;;;;;;25.08;11.40;;;;;;;-0.25;63.92;99078.88;5090052;28;20414;-21
2022/02/01 04:26:22;;;;;;;26.67;11.73;;;;;;;-0.75;65.81;99072.28;5071470;28;20407;-20
2022/02/01 04:28:47;;;;;;;23.83;11.63;;;;;;;-0.04;65.12;99079.06;5089966;28;20032;-22
2022/02/01 04:31:13;;;;;;;18.63;11.15;;;;;;;-0.28;64.57;99090.53;5089658;28;20036;-20
2022/02/01 04:33:38;;;;;;;24.08;12.93;;;;;;;-0.93;65.64;99096.84;5089995;28;20037;-21
2022/02/01 04:36:04;;;;;;;25.30;12.57;;;;;;;-1.25;66.91;99088.13;5071469;28;20446;-21
2022/02/01 04:38:30;;;;;;;25.45;12.57;;;;;;;-1.28;67.33;99072.75;5089670;28;20038;-21
2022/02/01 04:40:55;;;;;;;26.48;12.43;;;;;;;-1.28;68.23;99083.22;5071372;28;20036;-22
2022/02/01 04:43:21;;;;;;;23.83;12.52;;;;;;;-0.53;66.19;99071.50;5089520;28;20491;-21
2022/02/01 04:45:47;;;;;;;23.50;11.45;;;;;;;-0.13;63.88;99072.25;5089825;28;20479;-22
2022/02/01 04:48:12;;;;;;;24.00;12.98;;;;;;;-0.27;64.34;99057.28;5089601;28;20036;-21
2022/02/01 04:50:39;;;;;;;26.95;16.50;;;;;;;-0.11;64.50;99056.34;5089601;28;20055;-22
2022/02/01 04:53:04;;;;;;;29.25;17.40;;;;;;;0.55;61.93;99074.97;5089341;28;20035;-21
2022/02/01 04:56:03;;;;;;;20.70;14.15;;;;;;;0.10;62.36;99066.19;5089168;28;20024;-21
2022/02/01 04:58:23;;;;;;;35.85;16.17;;;;;;;-0.12;63.99;99073.88;5085827;28;20142;-22
2022/02/01 05:00:48;;;;;;;23.80;13.32;;;;;;;-0.02;64.03;99073.63;5089574;28;20032;-21
2022/02/01 05:03:14;;;;;;;29.17;14.63;;;;;;;0.16;63.58;99071.56;5071131;28;20097;-22
2022/02/01 05:05:39;;;;;;;32.35;15.90;;;;;;;-0.08;64.37;99069.94;5089082;28;20024;-21
2022/02/01 05:08:08;;;;;;;30.42;16.65;;;;;;;-0.11;65.38;99074.69;5089252;28;20036;-21
2022/02/01 05:10:34;;;;;;;34.72;18.25;;;;;;;0.24;64.18;99064.59;5071513;28;20085;-21
2022/02/01 05:15:41;;;;;;;32.97;17.70;;;;;;;-0.04;65.32;99050.25;5089113;28;20028;-20
2022/02/01 05:18:13;;;;;;;31.70;16.92;;;;;;;0.02;65.06;99058.38;5088441;28;20109;-22
2022/02/01 05:20:48;;;;;;;34.92;16.15;;;;;;;-0.55;67.21;99049.91;5055243;28;20039;-21
2022/02/01 05:23:15;;;;;;;26.75;12.75;;;;;;;-0.77;68.71;99063.78;5088879;28;20457;-21
2022/02/01 05:25:41;;;;;;;24.63;11.57;;;;;;;-0.93;69.49;99069.88;5089016;28;20031;-21
2022/02/01 05:28:07;;;;;;;23.15;10.93;;;;;;;-1.12;70.20;99060.63;5088592;28;20032;-21
2022/02/01 05:30:32;;;;;;;25.08;12.63;;;;;;;-0.81;68.67;99064.09;5088778;28;20809;-21
2022/02/01 05:32:57;;;;;;;32.85;18.73;;;;;;;-0.73;68.18;99060.63;5070316;28;20039;-21
2022/02/01 05:35:23;;;;;;;30.77;17.95;;;;;;;-0.57;68.74;99085.94;5088389;28;20028;-21
2022/02/01 05:37:48;;;;;;;37.60;24.75;;;;;;;-0.91;68.94;99092.28;5088690;28;20062;-22
2022/02/01 05:40:14;;;;;;;31.05;18.60;;;;;;;-0.56;69.12;99087.56;5088506;28;20044;-21
2022/02/01 05:42:59;;;;;;;40.78;23.45;;;;;;;-0.52;67.24;99061.84;5088627;28;20043;-20
2022/02/01 05:45:25;;;;;;;58.78;32.10;;;;;;;-0.66;68.74;99086.94;5087968;28;20028;-21
2022/02/01 05:47:50;;;;;;;55.47;30.75;;;;;;;-0.58;68.01;99073.81;5070486;28;20119;-21
2022/02/01 05:50:16;;;;;;;73.30;44.67;;;;;;;-0.90;69.04;99065.13;5088595;28;20028;-21
2022/02/01 05:52:41;;;;;;;81.35;55.58;;;;;;;-0.67;68.08;99035.56;5088486;28;20028;-21
2022/02/01 05:55:10;;;;;;;76.03;40.35;;;;;;;-0.26;66.38;99085.94;5070128;28;20507;-21
2022/02/01 05:57:36;;;;;;;61.88;29.27;;;;;;;0.23;65.56;99066.41;5087847;28;20035;-21
2022/02/01 06:00:01;;;;;;;56.65;26.15;;;;;;;0.26;64.12;99044.28;5087809;28;20024;-21
2022/02/01 06:02:27;;;;;;;40.97;23.33;;;;;;;0.31;64.54;99065.53;5088215;28;20509;-21
2022/02/01 06:04:52;;;;;;;82.95;42.60;;;;;;;0.34;64.52;99068.59;5087603;28;20032;-22
2022/02/01 06:07:18;;;;;;;44.33;22.38;;;;;;;0.73;63.76;99066.78;5087656;28;20035;-21
2022/02/01 06:09:43;;;;;;;41.15;22.13;;;;;;;0.31;64.33;99058.47;5069561;28;20020;-21
2022/02/01 06:12:09;;;;;;;42.42;23.77;;;;;;;0.31;64.13;99068.97;5069754;28;20047;-21
2022/02/01 06:14:34;;;;;;;37.92;21.17;;;;;;;0.60;64.19;99056.91;5069960;28;20472;-22
2022/02/01 06:17:00;;;;;;;53.78;21.38;;;;;;;0.51;64.05;99052.72;5087951;28;20027;-21
2022/02/01 06:19:25;;;;;;;35.55;19.20;;;;;;;0.87;62.79;99041.53;5087619;28;20020;-20
2022/02/01 06:21:51;;;;;;;48.42;25.50;;;;;;;1.09;62.04;99045.06;5087952;28;20032;-21
2022/02/01 06:24:19;;;;;;;52.10;29.60;;;;;;;0.87;62.12;99031.84;5087678;28;20032;-21
2022/02/01 06:26:44;;;;;;;59.65;32.53;;;;;;;1.02;61.75;99058.09;5087972;28;20028;-21
2022/02/01 06:29:10;;;;;;;88.50;40.78;;;;;;;1.02;63.07;99049.41;5087387;28;20031;-21
2022/02/01 06:31:35;;;;;;;78.85;38.78;;;;;;;1.19;62.38;99046.41;5087369;28;20020;-22
2022/02/01 06:34:01;;;;;;;50.80;29.45;;;;;;;0.54;63.89;99074.16;5087268;28;20063;-21
2022/02/01 06:36:26;;;;;;;55.92;29.95;;;;;;;0.28;65.44;99085.03;5087414;28;20028;-22
2022/02/01 06:38:52;;;;;;;69.47;33.30;;;;;;;0.01;66.42;99072.50;5087324;28;20028;-21
2022/02/01 06:41:18;;;;;;;65.13;35.40;;;;;;;0.66;63.97;99060.63;5087216;28;20036;-21
2022/02/01 06:43:43;;;;;;;68.32;37.20;;;;;;;1.18;62.56;99055.25;5087248;28;20036;-21
2022/02/01 06:46:09;;;;;;;86.00;41.22;;;;;;;1.03;62.99;99072.84;5087576;28;20493;-20
2022/02/01 06:48:34;;;;;;;76.72;39.35;;;;;;;0.69;64.21;99068.13;5087459;28;20484;-21
2022/02/01 06:51:00;;;;;;;83.43;41.03;;;;;;;0.78;63.56;99085.44;5087189;28;20035;-21
2022/02/01 06:53:25;;;;;;;61.42;35.55;;;;;;;0.32;66.98;99104.69;5068925;28;20036;-21
2022/02/01 06:58:46;;;;;;;69.78;38.90;;;;;;;1.01;63.92;99132.59;5055591;28;20054;-21
2022/02/01 07:01:11;;;;;;;70.18;35.75;;;;;;;1.22;63.65;99123.19;5087296;28;20028;-21
2022/02/01 07:03:37;;;;;;;59.88;28.98;;;;;;;1.40;62.49;99105.25;5052631;28;20036;-21
2022/02/01 07:06:05;;;;;;;40.65;22.25;;;;;;;1.41;64.08;99125.28;5087261;28;20551;-22
2022/02/01 07:08:30;;;;;;;66.53;33.20;;;;;;;1.22;63.52;99133.69;5086922;28;20027;-21
2022/02/01 07:10:56;;;;;;;81.38;41.33;;;;;;;0.73;66.41;99135.81;5087167;28;20039;-21
2022/02/01 07:13:22;;;;;;;67.53;37.10;;;;;;;1.23;64.06;99132.69;5086959;28;20086;-21
2022/02/01 07:15:47;;;;;;;77.03;35.88;;;;;;;1.55;62.50;99129.72;5090241;28;20405;-21
2022/02/01 07:18:13;;;;;;;68.57;35.47;;;;;;;1.31;63.04;99124.72;5091211;28;20032;-21
2022/02/01 07:20:38;;;;;;;73.43;36.25;;;;;;;1.06;63.94;99130.25;5056526;28;20028;-21
2022/02/01 07:23:05;;;;;;;65.43;35.17;;;;;;;1.81;62.31;99123.13;5090299;28;20032;-21
2022/02/01 07:25:32;;;;;;;67.00;35.97;;;;;;;2.06;61.14;99130.66;5072750;28;20119;-21
2022/02/01 07:28:02;;;;;;;69.47;36.93;;;;;;;1.87;61.41;99130.25;5091258;28;20040;-21
2022/02/01 07:30:28;;;;;;;74.00;35.67;;;;;;;2.16;60.37;99126.72;5091049;28;20111;-20
2022/02/01 07:32:54;;;;;;;83.88;42.42;;;;;;;1.64;61.66;99111.22;5090782;28;20822;-20
2022/02/01 07:35:21;;;;;;;98.55;50.97;;;;;;;1.79;60.77;99093.56;5072567;28;20046;-22
2022/02/01 07:37:47;;;;;;;99.65;46.40;;;;;;;1.52;62.16;99119.56;5090225;28;20032;-21
2022/02/01 07:40:12;;;;;;;47.90;26.52;;;;;;;1.36;62.85;99122.38;5072691;28;20054;-21
2022/02/01 07:42:38;;;;;;;45.67;23.58;;;;;;;1.24;62.98;99121.22;5091011;28;20056;-25
2022/02/01 07:45:08;;;;;;;53.03;24.45;;;;;;;1.59;62.23;99099.44;5090572;28;20058;-21
2022/02/01 07:47:33;;;;;;;63.67;28.55;;;;;;;2.27;60.56;99100.91;5090516;28;20451;-22
2022/02/01 07:49:59;;;;;;;107.20;40.20;;;;;;;2.65;58.78;99122.50;5090515;28;20024;-21
2022/02/01 07:52:24;;;;;;;140.57;47.58;;;;;;;2.38;59.24;99101.22;5090307;28;20055;-21
2022/02/01 07:54:50;;;;;;;108.90;41.58;;;;;;;1.75;61.80;99105.47;5090710;28;20053;-21
2022/02/01 07:57:15;;;;;;;76.65;34.22;;;;;;;1.64;62.33;99111.22;5090446;28;20027;-21
2022/02/01 07:59:41;;;;;;;61.80;29.05;;;;;;;1.80;62.04;99129.41;5071654;28;20056;-21
2022/02/01 08:02:18;;;;;;;87.20;38.28;;;;;;;1.70;61.66;99110.47;5055369;28;20116;-21
2022/02/01 08:04:44;;;;;;;76.00;32.63;;;;;;;1.88;61.79;99116.13;5090108;28;20115;-21
2022/02/01 08:07:10;;;;;;;60.95;27.95;;;;;;;2.15;61.20;99124.31;5089965;28;20027;-21
2022/02/01 08:09:39;;;;;;;48.78;24.40;;;;;;;2.31;61.34;99123.22;5090102;28;20036;-21
2022/02/01 08:12:14;;;;;;;50.05;23.77;;;;;;;2.36;60.44;99116.38;5090225;28;20024;-20
2022/02/01 08:17:22;;;;;;;49.50;23.90;;;;;;;2.77;59.93;99110.44;5090245;28;20051;-22
2022/02/01 08:24:59;;;;;;;27.73;14.43;;;;;;;2.42;62.06;99123.53;5089860;28;20307;-21
2022/02/01 08:27:25;;;;;;;28.83;14.00;;;;;;;2.88;61.34;99129.34;5088975;28;20546;-21
2022/02/01 08:29:50;;;;;;;23.58;12.60;;;;;;;2.73;61.71;99122.34;5089476;28;20059;-21
2022/02/01 08:32:16;;;;;;;20.80;11.27;;;;;;;2.44;62.65;99118.09;5055160;28;20153;-21
2022/02/01 08:34:41;;;;;;;23.17;13.02;;;;;;;2.38;63.17;99092.53;5089692;28;20036;-21
2022/02/01 08:37:07;;;;;;;22.35;13.60;;;;;;;2.38;64.11;99119.66;5089545;28;20407;-20
2022/02/01 08:39:33;;;;;;;28.33;15.77;;;;;;;2.67;63.02;99133.66;5089498;28;20495;-21
2022/02/01 08:41:58;;;;;;;30.42;16.45;;;;;;;2.41;64.04;99118.44;5071101;28;20081;-22
2022/02/01 08:44:28;;;;;;;28.80;16.08;;;;;;;2.10;65.08;99138.00;5089338;28;20032;-21
2022/02/01 08:46:54;;;;;;;26.67;13.52;;;;;;;1.77;65.55;99137.63;5089536;28;20055;-21
2022/02/01 08:49:19;;;;;;;28.88;16.60;;;;;;;1.61;66.88;99151.78;5089347;28;20109;-20
2022/02/01 08:51:48;;;;;;;25.85;13.77;;;;;;;1.43;66.48;99152.19;5088911;28;20027;-22
2022/02/01 08:54:18;;;;;;;28.27;14.05;;;;;;;0.87;68.52;99122.91;5089108;28;20043;-21
2022/02/01 08:59:28;;;;;;;25.63;14.18;;;;;;;0.74;70.09;99150.59;5073308;28;20153;-21
2022/02/01 09:01:54;;;;;;;29.65;15.07;;;;;;;0.98;69.95;99159.22;5054040;28;20131;-21
2022/02/01 09:04:19;;;;;;;30.33;15.63;;;;;;;0.59;70.29;99147.94;5037517;28;20483;-21
2022/02/01 09:06:45;;;;;;;34.40;18.20;;;;;;;0.87;71.10;99167.53;5088785;28;20776;-21
2022/02/01 09:09:10;;;;;;;34.30;18.17;;;;;;;1.05;71.22;99159.31;5070195;28;20036;-21
2022/02/01 09:11:35;;;;;;;27.10;15.40;;;;;;;0.90;70.74;99161.91;5088497;28;20032;-21
2022/02/01 09:14:01;;;;;;;28.25;15.05;;;;;;;0.98;70.53;99154.78;5088270;28;20047;-21
2022/02/01 09:16:26;;;;;;;28.05;14.55;;;;;;;1.16;70.44;99167.56;5054156;28;20035;-21
2022/02/01 09:18:54;;;;;;;27.88;14.23;;;;;;;0.98;70.68;99160.03;5088684;28;20035;-22
2022/02/01 09:21:19;;;;;;;31.45;14.07;;;;;;;1.05;72.12;99168.00;5070794;28;20024;-22
2022/02/01 09:23:44;;;;;;;34.33;16.60;;;;;;;1.09;72.22;99153.53;5088829;28;20690;-21
2022/02/01 09:26:10;;;;;;;28.70;14.85;;;;;;;1.16;71.39;99166.75;5069820;28;20055;-22
2022/02/01 09:28:35;;;;;;;27.13;14.35;;;;;;;0.67;73.58;99147.03;5087658;28;20032;-21
2022/02/01 09:31:01;;;;;;;28.13;15.05;;;;;;;0.78;74.74;99159.72;5088450;28;20027;-22
2022/02/01 09:33:27;;;;;;;22.75;14.15;;;;;;;0.86;74.50;99161.47;5088499;28;20039;-23
2022/02/01 09:35:53;;;;;;;26.45;14.85;;;;;;;1.15;74.61;99165.13;5069985;28;20097;-22
2022/02/01 09:38:19;;;;;;;28.50;13.82;;;;;;;1.29;73.85;99160.84;5087468;28;20464;-21
2022/02/01 09:40:45;;;;;;;25.77;13.82;;;;;;;0.98;75.16;99164.47;5088073;28;20024;-21
2022/02/01 09:43:10;;;;;;;23.83;13.98;;;;;;;0.93;75.64;99180.75;5088484;28;20464;-21
2022/02/01 09:45:36;;;;;;;29.73;15.68;;;;;;;0.75;76.04;99180.25;5087643;28;20028;-21
2022/02/01 09:48:02;;;;;;;31.25;16.42;;;;;;;0.47;78.67;99187.84;5070206;28;20411;-21
2022/02/01 09:50:28;;;;;;;23.63;13.68;;;;;;;0.19;79.59;99196.25;5088311;28;20036;-21
2022/02/01 09:52:53;;;;;;;26.25;14.60;;;;;;;0.09;80.21;99182.53;5070041;28;20077;-21
2022/02/01 09:55:22;;;;;;;39.58;17.50;;;;;;;-0.06;81.18;99185.91;5087674;28;20123;-21
2022/02/01 09:57:53;;;;;;;37.85;18.05;;;;;;;0.27;81.35;99206.69;5087688;28;20059;-21
2022/02/01 10:00:21;;;;;;;43.20;22.35;;;;;;;0.38;81.43;99195.78;5088168;28;20046;-21
2022/02/01 10:02:52;;;;;;;40.72;22.08;;;;;;;0.58;80.28;99174.34;5069470;28;20038;-21
2022/02/01 10:05:17;;;;;;;31.83;18.65;;;;;;;0.79;80.41;99190.22;5087720;28;20065;-21
2022/02/01 10:07:50;;;;;;;38.55;18.00;;;;;;;1.13;79.40;99194.19;5052355;28;20457;-22
2022/02/01 10:10:15;;;;;;;33.10;19.40;;;;;;;1.39;78.12;99192.97;5088014;28;20024;-22
2022/02/01 10:12:43;;;;;;;30.65;17.65;;;;;;;1.30;77.38;99175.63;5087775;28;20449;-21
2022/02/01 10:15:19;;;;;;;34.72;18.77;;;;;;;1.48;77.95;99159.53;5087922;28;20088;-21
2022/02/01 10:17:57;;;;;;;42.72;19.05;;;;;;;1.82;77.34;99177.34;5087605;28;20032;-21
2022/02/01 10:20:44;;;;;;;34.97;18.35;;;;;;;1.72;77.31;99176.81;5087475;28;20030;-22
2022/02/01 10:23:23;;;;;;;36.72;18.45;;;;;;;1.67;77.33;99168.66;5087757;28;20047;-21
2022/02/01 10:26:05;;;;;;;29.33;16.88;;;;;;;1.62;78.33;99176.28;5087555;28;20032;-22
2022/02/01 10:31:28;;;;;;;66.35;31.65;;;;;;;1.40;79.41;99168.31;5087585;28;20047;-21
2022/02/01 10:34:01;;;;;;;36.42;21.60;;;;;;;1.45;78.84;99176.47;5070450;28;20035;-21
2022/02/01 10:36:37;;;;;;;39.13;21.08;;;;;;;1.26;80.85;99177.00;5087289;28;20024;-23
2022/02/01 10:39:04;;;;;;;50.45;26.70;;;;;;;1.19;82.09;99188.22;5086591;28;20430;-21
2022/02/01 10:41:30;;;;;;;44.53;23.55;;;;;;;1.17;81.63;99178.91;5087151;28;20028;-21
2022/02/01 10:43:56;;;;;;;49.80;28.20;;;;;;;1.13;82.34;99165.31;5086776;28;20058;-21
2022/02/01 10:46:23;;;;;;;64.80;34.95;;;;;;;1.26;82.13;99161.25;5087010;28;20044;-21
2022/02/01 10:48:49;;;;;;;47.47;25.88;;;;;;;1.33;82.32;99175.28;5068690;28;20120;-20
2022/02/01 10:51:19;;;;;;;42.97;22.40;;;;;;;1.31;82.42;99174.63;5086569;28;20040;-20
2022/02/01 10:53:45;;;;;;;34.63;19.75;;;;;;;1.23;83.02;99177.34;5068514;28;20048;-22
2022/02/01 10:56:13;;;;;;;41.80;23.83;;;;;;;1.12;83.40;99155.78;5087156;28;20491;-21
2022/02/01 10:58:38;;;;;;;46.67;29.08;;;;;;;1.27;82.30;99178.63;5085812;28;20047;-21
2022/02/01 11:01:06;;;;;;;59.03;31.50;;;;;;;1.28;82.65;99175.00;5068862;28;20067;-21
2022/02/01 11:03:32;;;;;;;54.63;30.58;;;;;;;1.52;81.36;99177.38;5068369;28;20487;-21
2022/02/01 11:05:58;;;;;;;58.58;33.40;;;;;;;1.18;82.61;99176.06;5067848;28;20028;-21
2022/02/01 11:08:29;;;;;;;63.20;37.65;;;;;;;1.27;82.68;99184.69;5082980;28;20039;-21
2022/02/01 11:10:56;;;;;;;51.63;29.85;;;;;;;1.18;82.09;99155.06;5068533;28;20074;-22
2022/02/01 11:13:21;;;;;;;47.60;26.60;;;;;;;0.84;83.79;99163.47;5086228;28;20043;-22
2022/02/01 11:16:01;;;;;;;48.88;26.67;;;;;;;0.72;84.75;99178.00;5086320;28;20028;-22
2022/02/01 11:18:27;;;;;;;50.40;28.05;;;;;;;0.82;85.22;99165.44;5051678;28;20055;-21
2022/02/01 11:21:14;;;;;;;46.42;27.45;;;;;;;0.89;85.76;99165.53;5086085;28;20118;-21
2022/02/01 11:23:54;;;;;;;40.38;24.42;;;;;;;1.02;84.48;99157.84;5086221;28;20142;-21
2022/02/01 11:26:22;;;;;;;43.97;24.67;;;;;;;1.24;83.67;99157.97;5069898;28;20028;-21
2022/02/01 11:31:29;;;;;;;40.80;22.95;;;;;;;1.45;82.42;99158.09;5086410;28;20143;-21
2022/02/01 11:33:55;;;;;;;37.83;20.23;;;;;;;1.27;82.54;99158.44;5067879;28;20943;-21
2022/02/01 11:36:20;;;;;;;33.65;18.88;;;;;;;1.20;83.37;99168.03;5068164;28;20036;-22
2022/02/01 11:38:55;;;;;;;36.13;20.65;;;;;;;1.38;83.15;99160.59;5068094;28;20637;-22
2022/02/01 11:41:33;;;;;;;42.78;21.67;;;;;;;1.55;82.86;99166.50;5086186;28;20036;-23
2022/02/01 11:44:12;;;;;;;43.58;25.60;;;;;;;1.72;81.64;99138.19;5085977;28;20051;-21
2022/02/01 11:46:39;;;;;;;37.50;22.58;;;;;;;2.07;80.46;99154.16;5068115;28;20031;-22
2022/02/01 11:49:04;;;;;;;39.65;21.23;;;;;;;1.77;81.24;99161.28;5067484;28;20024;-22
2022/02/01 11:51:31;;;;;;;29.67;18.02;;;;;;;1.87;81.62;99148.66;5066935;28;20143;-22
2022/02/01 11:54:00;;;;;;;29.23;17.30;;;;;;;1.95;80.83;99132.78;5085414;28;20028;-22
2022/02/01 11:56:37;;;;;;;33.28;17.30;;;;;;;2.31;80.04;99152.16;5086453;28;20024;-22
2022/02/01 11:59:07;;;;;;;27.17;16.50;;;;;;;2.25;80.39;99156.38;5085544;28;20044;-21
2022/02/01 12:01:39;;;;;;;28.70;17.90;;;;;;;2.14;80.00;99136.63;5068680;28;20852;-22
2022/02/01 12:04:10;;;;;;;30.88;19.50;;;;;;;2.21;80.30;99160.38;5071448;28;20028;-21
2022/02/01 12:06:47;;;;;;;36.78;21.90;;;;;;;2.41;80.22;99160.56;5071873;28;20024;-21
2022/02/01 12:09:23;;;;;;;37.50;22.30;;;;;;;2.67;79.55;99159.97;5073674;28;20031;-21
2022/02/01 12:11:56;;;;;;;44.10;26.27;;;;;;;2.72;79.25;99162.88;5037325;28;20687;-21
2022/02/01 12:14:21;;;;;;;118.28;55.13;;;;;;;3.19;77.97;99161.38;5051513;28;20505;-23
2022/02/01 12:16:51;;;;;;;40.38;24.15;;;;;;;3.09;77.57;99166.19;5069441;28;20062;-22
2022/02/01 12:19:19;;;;;;;40.92;21.63;;;;;;;3.02;77.25;99162.69;5050969;28;20052;-22
2022/02/01 12:22:05;;;;;;;39.13;22.95;;;;;;;2.65;78.67;99154.09;5068780;28;20036;-20
2022/02/01 12:24:31;;;;;;;44.33;24.88;;;;;;;2.71;78.74;99155.16;5069169;28;20067;-20
2022/02/01 12:26:56;;;;;;;43.20;24.38;;;;;;;2.99;77.46;99165.72;5069420;28;20063;-21
2022/02/01 12:29:22;;;;;;;62.95;33.67;;;;;;;2.94;78.16;99182.09;5068481;28;20025;-22
2022/02/01 12:31:48;;;;;;;46.90;28.98;;;;;;;2.44;79.81;99181.25;5069084;28;20032;-22
2022/02/01 12:34:15;;;;;;;46.47;25.67;;;;;;;2.24;81.73;99194.19;5051262;28;20028;-22
2022/02/01 12:36:49;;;;;;;47.55;28.38;;;;;;;2.20;81.99;99196.38;5051287;28;20037;-20
2022/02/01 12:39:32;;;;;;;42.42;25.48;;;;;;;1.87;82.29;99159.19;5050284;28;20052;-23
2022/02/01 12:47:08;;;;;;;53.13;31.48;;;;;;;2.31;81.17;99165.31;5070283;28;20039;-21
2022/02/01 12:49:45;;;;;;;65.78;39.15;;;;;;;2.38;81.63;99177.53;5069586;28;20409;-21
2022/02/01 12:52:22;;;;;;;63.45;36.53;;;;;;;2.78;80.04;99185.00;5051450;28;20032;-22
2022/02/01 12:54:47;;;;;;;74.43;38.95;;;;;;;2.45;81.06;99174.16;5069847;28;20040;-22
2022/02/01 12:57:15;;;;;;;61.53;35.13;;;;;;;2.28;81.37;99174.41;5080581;28;20759;-22
2022/02/01 12:59:47;;;;;;;85.57;42.40;;;;;;;2.61;81.16;99192.31;5041207;28;20044;-21
2022/02/01 13:02:17;;;;;;;59.00;34.58;;;;;;;2.69;80.34;99179.03;5058099;28;20575;-22